sensor_id;sensor_type;location;lat;lon;timestamp;temperature;humidity
43520;DHT22;46848;51.980;5.918;2023-03-05T00:01:42;7.70;70.20
43520;DHT22;46848;51.980;5.918;2023-03-05T00:04:11;7.70;70.30
43520;DHT22;46848;51.980;5.918;2023-03-05T00:06:38;7.70;70.30
43520;DHT22;46848;51.980;5.918;2023-03-05T00:09:04;7.70;70.40
43520;DHT22;46848;51.980;5.918;2023-03-05T00:11:29;7.70;70.40
43520;DHT22;46848;51.980;5.918;2023-03-05T00:13:56;7.60;70.40
43520;DHT22;46848;51.980;5.918;2023-03-05T00:16:23;7.70;70.50
43520;DHT22;46848;51.980;5.918;2023-03-05T00:18:51;7.60;70.60
43520;DHT22;46848;51.980;5.918;2023-03-05T00:21:19;7.70;70.60
43520;DHT22;46848;51.980;5.918;2023-03-05T00:23:45;7.60;70.70
43520;DHT22;46848;51.980;5.918;2023-03-05T00:26:11;7.60;70.70
43520;DHT22;46848;51.980;5.918;2023-03-05T00:28:37;7.60;70.80
43520;DHT22;46848;51.980;5.918;2023-03-05T00:31:02;7.60;70.80
43520;DHT22;46848;51.980;5.918;2023-03-05T00:33:28;7.60;70.80
43520;DHT22;46848;51.980;5.918;2023-03-05T00:35:54;7.60;70.80
43520;DHT22;46848;51.980;5.918;2023-03-05T00:38:19;7.60;70.80
43520;DHT22;46848;51.980;5.918;2023-03-05T00:40:45;7.60;70.80
43520;DHT22;46848;51.980;5.918;2023-03-05T00:43:10;7.60;70.90
43520;DHT22;46848;51.980;5.918;2023-03-05T00:45:36;7.60;70.90
43520;DHT22;46848;51.980;5.918;2023-03-05T00:48:02;7.70;70.90
43520;DHT22;46848;51.980;5.918;2023-03-05T00:50:28;7.70;70.90
43520;DHT22;46848;51.980;5.918;2023-03-05T00:52:54;7.70;70.90
43520;DHT22;46848;51.980;5.918;2023-03-05T00:55:20;7.70;70.90
43520;DHT22;46848;51.980;5.918;2023-03-05T00:57:46;7.70;70.90
43520;DHT22;46848;51.980;5.918;2023-03-05T01:00:12;7.70;70.90
43520;DHT22;46848;51.980;5.918;2023-03-05T01:02:38;7.70;71.00
43520;DHT22;46848;51.980;5.918;2023-03-05T01:05:04;7.70;71.00
43520;DHT22;46848;51.980;5.918;2023-03-05T01:07:30;7.70;71.10
43520;DHT22;46848;51.980;5.918;2023-03-05T01:09:56;7.70;71.20
43520;DHT22;46848;51.980;5.918;2023-03-05T01:12:21;7.60;71.30
43520;DHT22;46848;51.980;5.918;2023-03-05T01:14:47;7.70;71.40
43520;DHT22;46848;51.980;5.918;2023-03-05T01:17:13;7.70;71.50
43520;DHT22;46848;51.980;5.918;2023-03-05T01:19:39;7.70;71.50
43520;DHT22;46848;51.980;5.918;2023-03-05T01:22:04;7.60;71.50
43520;DHT22;46848;51.980;5.918;2023-03-05T01:24:30;7.60;71.60
43520;DHT22;46848;51.980;5.918;2023-03-05T01:26:57;7.60;71.70
43520;DHT22;46848;51.980;5.918;2023-03-05T01:29:23;7.60;71.70
43520;DHT22;46848;51.980;5.918;2023-03-05T01:31:48;7.60;71.80
43520;DHT22;46848;51.980;5.918;2023-03-05T01:34:14;7.60;71.90
43520;DHT22;46848;51.980;5.918;2023-03-05T01:36:41;7.60;71.90
43520;DHT22;46848;51.980;5.918;2023-03-05T01:39:06;7.50;71.90
43520;DHT22;46848;51.980;5.918;2023-03-05T01:41:32;7.60;71.90
43520;DHT22;46848;51.980;5.918;2023-03-05T01:43:58;7.60;72.00
43520;DHT22;46848;51.980;5.918;2023-03-05T01:46:35;7.60;72.00
43520;DHT22;46848;51.980;5.918;2023-03-05T01:51:32;7.60;72.10
43520;DHT22;46848;51.980;5.918;2023-03-05T01:54:01;7.60;72.10
43520;DHT22;46848;51.980;5.918;2023-03-05T01:56:28;7.50;71.90
43520;DHT22;46848;51.980;5.918;2023-03-05T01:58:55;7.60;72.00
43520;DHT22;46848;51.980;5.918;2023-03-05T02:01:29;7.50;71.90
43520;DHT22;46848;51.980;5.918;2023-03-05T02:03:55;7.50;72.00
43520;DHT22;46848;51.980;5.918;2023-03-05T02:06:21;7.50;72.50
43520;DHT22;46848;51.980;5.918;2023-03-05T02:08:47;7.50;71.90
43520;DHT22;46848;51.980;5.918;2023-03-05T02:11:12;7.50;71.90
43520;DHT22;46848;51.980;5.918;2023-03-05T02:13:38;7.50;72.00
43520;DHT22;46848;51.980;5.918;2023-03-05T02:16:05;7.50;72.00
43520;DHT22;46848;51.980;5.918;2023-03-05T02:18:31;7.50;72.00
43520;DHT22;46848;51.980;5.918;2023-03-05T02:20:59;7.50;72.00
43520;DHT22;46848;51.980;5.918;2023-03-05T02:23:31;7.40;71.90
43520;DHT22;46848;51.980;5.918;2023-03-05T02:26:05;7.40;71.90
43520;DHT22;46848;51.980;5.918;2023-03-05T02:31:14;7.40;72.10
43520;DHT22;46848;51.980;5.918;2023-03-05T02:33:40;7.40;72.10
43520;DHT22;46848;51.980;5.918;2023-03-05T02:36:07;7.40;72.10
43520;DHT22;46848;51.980;5.918;2023-03-05T02:38:33;7.40;72.70
43520;DHT22;46848;51.980;5.918;2023-03-05T02:40:59;7.40;72.10
43520;DHT22;46848;51.980;5.918;2023-03-05T02:43:26;7.30;72.10
43520;DHT22;46848;51.980;5.918;2023-03-05T02:45:51;7.30;72.10
43520;DHT22;46848;51.980;5.918;2023-03-05T02:48:17;7.40;72.20
43520;DHT22;46848;51.980;5.918;2023-03-05T02:50:44;7.30;72.20
43520;DHT22;46848;51.980;5.918;2023-03-05T02:53:10;7.20;72.10
43520;DHT22;46848;51.980;5.918;2023-03-05T02:55:36;7.30;72.20
43520;DHT22;46848;51.980;5.918;2023-03-05T02:58:02;7.20;72.20
43520;DHT22;46848;51.980;5.918;2023-03-05T03:00:27;7.30;72.20
43520;DHT22;46848;51.980;5.918;2023-03-05T03:02:53;7.20;72.20
43520;DHT22;46848;51.980;5.918;2023-03-05T03:05:19;7.20;72.20
43520;DHT22;46848;51.980;5.918;2023-03-05T03:07:45;7.20;72.30
43520;DHT22;46848;51.980;5.918;2023-03-05T03:10:10;7.20;72.20
43520;DHT22;46848;51.980;5.918;2023-03-05T03:12:41;7.30;72.30
43520;DHT22;46848;51.980;5.918;2023-03-05T03:15:08;7.20;72.30
43520;DHT22;46848;51.980;5.918;2023-03-05T03:17:35;7.20;72.30
43520;DHT22;46848;51.980;5.918;2023-03-05T03:20:05;7.20;72.30
43520;DHT22;46848;51.980;5.918;2023-03-05T03:22:32;7.20;72.30
43520;DHT22;46848;51.980;5.918;2023-03-05T03:24:58;7.20;72.30
43520;DHT22;46848;51.980;5.918;2023-03-05T03:27:23;7.20;72.30
43520;DHT22;46848;51.980;5.918;2023-03-05T03:29:49;7.20;72.30
43520;DHT22;46848;51.980;5.918;2023-03-05T03:32:14;7.20;72.40
43520;DHT22;46848;51.980;5.918;2023-03-05T03:34:40;7.20;72.50
43520;DHT22;46848;51.980;5.918;2023-03-05T03:37:06;7.10;72.40
43520;DHT22;46848;51.980;5.918;2023-03-05T03:39:33;7.20;72.50
43520;DHT22;46848;51.980;5.918;2023-03-05T03:41:59;7.10;72.50
43520;DHT22;46848;51.980;5.918;2023-03-05T03:44:24;7.10;72.50
43520;DHT22;46848;51.980;5.918;2023-03-05T03:46:50;7.20;72.60
43520;DHT22;46848;51.980;5.918;2023-03-05T03:49:25;7.10;72.60
43520;DHT22;46848;51.980;5.918;2023-03-05T03:51:52;7.10;72.60
43520;DHT22;46848;51.980;5.918;2023-03-05T03:54:22;7.10;72.60
43520;DHT22;46848;51.980;5.918;2023-03-05T03:56:48;7.10;72.60
43520;DHT22;46848;51.980;5.918;2023-03-05T03:59:13;7.10;72.70
43520;DHT22;46848;51.980;5.918;2023-03-05T04:01:39;7.10;72.70
43520;DHT22;46848;51.980;5.918;2023-03-05T04:04:06;7.10;72.70
43520;DHT22;46848;51.980;5.918;2023-03-05T04:06:35;7.10;72.80
43520;DHT22;46848;51.980;5.918;2023-03-05T04:09:01;7.10;72.80
43520;DHT22;46848;51.980;5.918;2023-03-05T04:11:26;7.10;73.40
43520;DHT22;46848;51.980;5.918;2023-03-05T04:13:52;7.10;73.50
43520;DHT22;46848;51.980;5.918;2023-03-05T04:16:18;7.10;72.90
43520;DHT22;46848;51.980;5.918;2023-03-05T04:18:43;7.10;72.90
43520;DHT22;46848;51.980;5.918;2023-03-05T04:21:09;7.00;72.80
43520;DHT22;46848;51.980;5.918;2023-03-05T04:23:35;7.10;72.90
43520;DHT22;46848;51.980;5.918;2023-03-05T04:26:01;7.10;72.90
43520;DHT22;46848;51.980;5.918;2023-03-05T04:28:27;7.10;72.90
43520;DHT22;46848;51.980;5.918;2023-03-05T04:30:52;7.10;72.90
43520;DHT22;46848;51.980;5.918;2023-03-05T04:33:18;7.10;72.90
43520;DHT22;46848;51.980;5.918;2023-03-05T04:35:46;7.00;73.00
43520;DHT22;46848;51.980;5.918;2023-03-05T04:38:12;7.00;72.90
43520;DHT22;46848;51.980;5.918;2023-03-05T04:40:38;7.00;73.00
43520;DHT22;46848;51.980;5.918;2023-03-05T04:43:05;7.00;72.90
43520;DHT22;46848;51.980;5.918;2023-03-05T04:45:30;7.00;73.00
43520;DHT22;46848;51.980;5.918;2023-03-05T04:47:56;7.00;73.00
43520;DHT22;46848;51.980;5.918;2023-03-05T04:50:22;7.00;73.00
43520;DHT22;46848;51.980;5.918;2023-03-05T04:52:48;7.00;73.00
43520;DHT22;46848;51.980;5.918;2023-03-05T04:55:15;7.00;73.00
43520;DHT22;46848;51.980;5.918;2023-03-05T04:57:41;7.00;73.00
43520;DHT22;46848;51.980;5.918;2023-03-05T05:00:10;7.00;73.00
43520;DHT22;46848;51.980;5.918;2023-03-05T05:02:49;7.00;72.90
43520;DHT22;46848;51.980;5.918;2023-03-05T05:05:19;7.00;73.00
43520;DHT22;46848;51.980;5.918;2023-03-05T05:07:45;7.00;72.90
43520;DHT22;46848;51.980;5.918;2023-03-05T05:10:12;6.90;72.90
43520;DHT22;46848;51.980;5.918;2023-03-05T05:12:38;6.90;72.90
43520;DHT22;46848;51.980;5.918;2023-03-05T05:15:04;7.00;73.60
43520;DHT22;46848;51.980;5.918;2023-03-05T05:17:30;7.00;73.00
43520;DHT22;46848;51.980;5.918;2023-03-05T05:19:58;7.00;73.10
43520;DHT22;46848;51.980;5.918;2023-03-05T05:22:24;6.90;73.00
43520;DHT22;46848;51.980;5.918;2023-03-05T05:24:50;6.90;73.10
43520;DHT22;46848;51.980;5.918;2023-03-05T05:27:15;6.90;73.70
43520;DHT22;46848;51.980;5.918;2023-03-05T05:29:41;6.90;73.10
43520;DHT22;46848;51.980;5.918;2023-03-05T05:32:07;6.90;73.20
43520;DHT22;46848;51.980;5.918;2023-03-05T05:34:32;6.90;73.40
43520;DHT22;46848;51.980;5.918;2023-03-05T05:36:58;6.90;73.40
43520;DHT22;46848;51.980;5.918;2023-03-05T05:39:23;6.90;73.60
43520;DHT22;46848;51.980;5.918;2023-03-05T05:41:51;6.80;73.60
43520;DHT22;46848;51.980;5.918;2023-03-05T05:44:16;6.80;73.60
43520;DHT22;46848;51.980;5.918;2023-03-05T05:46:42;6.90;74.30
43520;DHT22;46848;51.980;5.918;2023-03-05T05:49:08;6.80;73.60
43520;DHT22;46848;51.980;5.918;2023-03-05T05:51:33;6.80;73.60
43520;DHT22;46848;51.980;5.918;2023-03-05T05:53:59;6.80;73.70
43520;DHT22;46848;51.980;5.918;2023-03-05T05:56:26;6.80;73.70
43520;DHT22;46848;51.980;5.918;2023-03-05T05:58:52;6.80;73.70
43520;DHT22;46848;51.980;5.918;2023-03-05T06:01:23;6.80;73.80
43520;DHT22;46848;51.980;5.918;2023-03-05T06:03:49;6.80;73.80
43520;DHT22;46848;51.980;5.918;2023-03-05T06:06:17;6.80;73.70
43520;DHT22;46848;51.980;5.918;2023-03-05T06:08:43;6.80;73.80
43520;DHT22;46848;51.980;5.918;2023-03-05T06:11:09;6.80;73.90
43520;DHT22;46848;51.980;5.918;2023-03-05T06:13:35;6.70;73.90
43520;DHT22;46848;51.980;5.918;2023-03-05T06:16:05;6.70;74.00
43520;DHT22;46848;51.980;5.918;2023-03-05T06:18:33;6.70;73.90
43520;DHT22;46848;51.980;5.918;2023-03-05T06:21:03;6.70;74.00
43520;DHT22;46848;51.980;5.918;2023-03-05T06:23:30;6.70;74.00
43520;DHT22;46848;51.980;5.918;2023-03-05T06:25:58;6.70;74.00
43520;DHT22;46848;51.980;5.918;2023-03-05T06:28:25;6.70;74.00
43520;DHT22;46848;51.980;5.918;2023-03-05T06:30:59;6.70;74.10
43520;DHT22;46848;51.980;5.918;2023-03-05T06:33:24;6.80;74.10
43520;DHT22;46848;51.980;5.918;2023-03-05T06:35:50;6.70;74.00
43520;DHT22;46848;51.980;5.918;2023-03-05T06:38:15;6.70;74.10
43520;DHT22;46848;51.980;5.918;2023-03-05T06:40:41;6.70;74.10
43520;DHT22;46848;51.980;5.918;2023-03-05T06:43:06;6.70;74.10
43520;DHT22;46848;51.980;5.918;2023-03-05T06:45:32;6.70;74.10
43520;DHT22;46848;51.980;5.918;2023-03-05T06:47:57;6.70;74.10
43520;DHT22;46848;51.980;5.918;2023-03-05T06:50:23;6.70;74.70
43520;DHT22;46848;51.980;5.918;2023-03-05T06:52:49;6.70;74.10
43520;DHT22;46848;51.980;5.918;2023-03-05T06:55:16;6.80;74.20
43520;DHT22;46848;51.980;5.918;2023-03-05T06:57:43;6.80;74.20
43520;DHT22;46848;51.980;5.918;2023-03-05T07:00:11;6.70;74.20
43520;DHT22;46848;51.980;5.918;2023-03-05T07:02:37;6.80;74.20
43520;DHT22;46848;51.980;5.918;2023-03-05T07:05:04;6.80;74.20
43520;DHT22;46848;51.980;5.918;2023-03-05T07:07:31;6.70;74.20
43520;DHT22;46848;51.980;5.918;2023-03-05T07:09:57;6.70;74.30
43520;DHT22;46848;51.980;5.918;2023-03-05T07:12:28;6.70;74.30
43520;DHT22;46848;51.980;5.918;2023-03-05T07:14:54;6.80;74.60
43520;DHT22;46848;51.980;5.918;2023-03-05T07:17:20;6.80;74.50
43520;DHT22;46848;51.980;5.918;2023-03-05T07:19:46;6.70;74.50
43520;DHT22;46848;51.980;5.918;2023-03-05T07:22:11;6.80;74.50
43520;DHT22;46848;51.980;5.918;2023-03-05T07:24:40;6.80;74.60
43520;DHT22;46848;51.980;5.918;2023-03-05T07:27:06;6.80;74.50
43520;DHT22;46848;51.980;5.918;2023-03-05T07:29:31;6.80;74.50
43520;DHT22;46848;51.980;5.918;2023-03-05T07:31:57;6.80;74.60
43520;DHT22;46848;51.980;5.918;2023-03-05T07:34:22;6.90;74.60
43520;DHT22;46848;51.980;5.918;2023-03-05T07:36:51;6.90;74.60
43520;DHT22;46848;51.980;5.918;2023-03-05T07:39:18;7.00;74.60
43520;DHT22;46848;51.980;5.918;2023-03-05T07:41:45;7.00;74.50
43520;DHT22;46848;51.980;5.918;2023-03-05T07:44:11;7.00;74.40
43520;DHT22;46848;51.980;5.918;2023-03-05T07:46:36;7.00;74.40
43520;DHT22;46848;51.980;5.918;2023-03-05T07:49:03;7.10;74.40
43520;DHT22;46848;51.980;5.918;2023-03-05T07:51:28;7.10;74.40
43520;DHT22;46848;51.980;5.918;2023-03-05T07:53:56;7.20;74.30
43520;DHT22;46848;51.980;5.918;2023-03-05T07:56:28;7.30;74.20
43520;DHT22;46848;51.980;5.918;2023-03-05T07:59:13;7.30;74.10
43520;DHT22;46848;51.980;5.918;2023-03-05T08:01:39;7.40;74.10
43520;DHT22;46848;51.980;5.918;2023-03-05T08:04:06;7.40;73.90
43520;DHT22;46848;51.980;5.918;2023-03-05T08:06:33;7.40;73.80
43520;DHT22;46848;51.980;5.918;2023-03-05T08:08:59;7.50;73.80
43520;DHT22;46848;51.980;5.918;2023-03-05T08:11:25;7.60;73.80
43520;DHT22;46848;51.980;5.918;2023-03-05T08:13:51;7.80;73.80
43520;DHT22;46848;51.980;5.918;2023-03-05T08:16:18;7.90;73.70
43520;DHT22;46848;51.980;5.918;2023-03-05T08:18:45;7.90;73.50
43520;DHT22;46848;51.980;5.918;2023-03-05T08:21:20;8.00;73.50
43520;DHT22;46848;51.980;5.918;2023-03-05T08:23:46;8.10;73.40
43520;DHT22;46848;51.980;5.918;2023-03-05T08:26:13;8.20;73.20
43520;DHT22;46848;51.980;5.918;2023-03-05T08:28:39;8.30;73.10
43520;DHT22;46848;51.980;5.918;2023-03-05T08:31:08;8.40;72.90
43520;DHT22;46848;51.980;5.918;2023-03-05T08:33:34;8.50;72.80
43520;DHT22;46848;51.980;5.918;2023-03-05T08:36:00;8.60;72.60
43520;DHT22;46848;51.980;5.918;2023-03-05T08:38:26;8.70;72.50
43520;DHT22;46848;51.980;5.918;2023-03-05T08:40:52;8.80;72.30
43520;DHT22;46848;51.980;5.918;2023-03-05T08:43:18;8.90;72.10
43520;DHT22;46848;51.980;5.918;2023-03-05T08:45:43;9.00;71.90
43520;DHT22;46848;51.980;5.918;2023-03-05T08:48:09;9.20;71.50
43520;DHT22;46848;51.980;5.918;2023-03-05T08:50:35;9.30;71.20
43520;DHT22;46848;51.980;5.918;2023-03-05T08:53:01;9.50;70.90
43520;DHT22;46848;51.980;5.918;2023-03-05T08:55:27;9.60;70.50
43520;DHT22;46848;51.980;5.918;2023-03-05T08:57:52;9.80;70.30
43520;DHT22;46848;51.980;5.918;2023-03-05T09:00:18;9.80;70.00
43520;DHT22;46848;51.980;5.918;2023-03-05T09:02:44;9.80;69.60
43520;DHT22;46848;51.980;5.918;2023-03-05T09:05:10;9.80;69.30
43520;DHT22;46848;51.980;5.918;2023-03-05T09:07:35;9.90;69.20
43520;DHT22;46848;51.980;5.918;2023-03-05T09:10:03;9.90;69.10
43520;DHT22;46848;51.980;5.918;2023-03-05T09:12:30;9.90;69.00
43520;DHT22;46848;51.980;5.918;2023-03-05T09:14:56;9.90;68.90
43520;DHT22;46848;51.980;5.918;2023-03-05T09:17:22;10.00;68.80
43520;DHT22;46848;51.980;5.918;2023-03-05T09:19:48;10.00;68.60
43520;DHT22;46848;51.980;5.918;2023-03-05T09:22:14;10.10;68.50
43520;DHT22;46848;51.980;5.918;2023-03-05T09:24:40;10.10;68.30
43520;DHT22;46848;51.980;5.918;2023-03-05T09:27:05;10.10;68.20
43520;DHT22;46848;51.980;5.918;2023-03-05T09:29:31;10.10;68.00
43520;DHT22;46848;51.980;5.918;2023-03-05T09:31:57;10.20;68.00
43520;DHT22;46848;51.980;5.918;2023-03-05T09:34:22;10.20;67.90
43520;DHT22;46848;51.980;5.918;2023-03-05T09:36:48;10.20;67.80
43520;DHT22;46848;51.980;5.918;2023-03-05T09:39:14;10.20;67.70
43520;DHT22;46848;51.980;5.918;2023-03-05T09:42:03;10.30;67.60
43520;DHT22;46848;51.980;5.918;2023-03-05T09:45:02;10.30;67.30
43520;DHT22;46848;51.980;5.918;2023-03-05T09:50:36;10.40;67.30
43520;DHT22;46848;51.980;5.918;2023-03-05T09:56:00;10.50;67.10
43520;DHT22;46848;51.980;5.918;2023-03-05T09:58:34;10.60;66.80
43520;DHT22;46848;51.980;5.918;2023-03-05T10:01:06;10.60;66.70
43520;DHT22;46848;51.980;5.918;2023-03-05T10:03:53;10.60;67.10
43520;DHT22;46848;51.980;5.918;2023-03-05T10:11:46;10.90;66.00
43520;DHT22;46848;51.980;5.918;2023-03-05T10:14:27;11.00;65.60
43520;DHT22;46848;51.980;5.918;2023-03-05T10:16:57;11.00;65.40
43520;DHT22;46848;51.980;5.918;2023-03-05T10:22:22;11.20;65.10
43520;DHT22;46848;51.980;5.918;2023-03-05T10:27:46;11.20;64.70
43520;DHT22;46848;51.980;5.918;2023-03-05T10:30:25;11.20;64.60
43520;DHT22;46848;51.980;5.918;2023-03-05T10:33:04;11.10;64.30
43520;DHT22;46848;51.980;5.918;2023-03-05T10:38:21;10.90;64.40
43520;DHT22;46848;51.980;5.918;2023-03-05T10:40:56;10.80;64.50
43520;DHT22;46848;51.980;5.918;2023-03-05T10:43:26;10.80;64.50
43520;DHT22;46848;51.980;5.918;2023-03-05T10:46:00;10.60;64.40
43520;DHT22;46848;51.980;5.918;2023-03-05T10:48:36;10.60;64.40
43520;DHT22;46848;51.980;5.918;2023-03-05T10:56:44;10.30;64.30
43520;DHT22;46848;51.980;5.918;2023-03-05T10:59:10;10.30;64.60
43520;DHT22;46848;51.980;5.918;2023-03-05T11:01:36;10.30;64.70
43520;DHT22;46848;51.980;5.918;2023-03-05T11:04:26;10.30;64.50
43520;DHT22;46848;51.980;5.918;2023-03-05T11:06:52;10.30;64.30
43520;DHT22;46848;51.980;5.918;2023-03-05T11:12:16;10.30;64.30
43520;DHT22;46848;51.980;5.918;2023-03-05T11:14:46;10.30;64.00
43520;DHT22;46848;51.980;5.918;2023-03-05T11:17:47;10.30;64.30
43520;DHT22;46848;51.980;5.918;2023-03-05T11:23:16;10.40;64.10
43520;DHT22;46848;51.980;5.918;2023-03-05T11:28:27;10.60;63.20
43520;DHT22;46848;51.980;5.918;2023-03-05T11:34:20;10.80;62.40
43520;DHT22;46848;51.980;5.918;2023-03-05T11:39:24;11.00;62.10
43520;DHT22;46848;51.980;5.918;2023-03-05T11:41:50;11.00;61.70
43520;DHT22;46848;51.980;5.918;2023-03-05T11:47:01;10.80;62.60
43520;DHT22;46848;51.980;5.918;2023-03-05T11:49:42;10.80;62.00
43520;DHT22;46848;51.980;5.918;2023-03-05T11:52:22;10.80;62.10
43520;DHT22;46848;51.980;5.918;2023-03-05T11:55:06;10.80;62.10
43520;DHT22;46848;51.980;5.918;2023-03-05T11:57:48;10.80;61.90
43520;DHT22;46848;51.980;5.918;2023-03-05T12:00:20;10.80;62.20
43520;DHT22;46848;51.980;5.918;2023-03-05T12:02:52;10.70;62.20
43520;DHT22;46848;51.980;5.918;2023-03-05T12:05:19;10.60;62.20
43520;DHT22;46848;51.980;5.918;2023-03-05T12:07:49;10.50;62.30
43520;DHT22;46848;51.980;5.918;2023-03-05T12:10:20;10.40;62.80
43520;DHT22;46848;51.980;5.918;2023-03-05T12:13:18;10.30;62.80
43520;DHT22;46848;51.980;5.918;2023-03-05T12:21:33;10.10;63.20
43520;DHT22;46848;51.980;5.918;2023-03-05T12:29:51;10.00;63.10
43520;DHT22;46848;51.980;5.918;2023-03-05T12:34:57;10.00;63.30
43520;DHT22;46848;51.980;5.918;2023-03-05T12:53:14;9.90;62.90
43520;DHT22;46848;51.980;5.918;2023-03-05T13:00:57;9.80;63.30
43520;DHT22;46848;51.980;5.918;2023-03-05T13:03:31;9.90;63.40
43520;DHT22;46848;51.980;5.918;2023-03-05T13:05:58;9.90;63.30
43520;DHT22;46848;51.980;5.918;2023-03-05T13:08:30;9.80;62.90
43520;DHT22;46848;51.980;5.918;2023-03-05T13:11:20;9.80;63.20
43520;DHT22;46848;51.980;5.918;2023-03-05T13:13:47;9.70;63.30
43520;DHT22;46848;51.980;5.918;2023-03-05T13:16:27;9.60;63.60
43520;DHT22;46848;51.980;5.918;2023-03-05T13:18:56;9.60;63.80
43520;DHT22;46848;51.980;5.918;2023-03-05T13:21:25;9.60;64.00
43520;DHT22;46848;51.980;5.918;2023-03-05T13:23:54;9.70;64.10
43520;DHT22;46848;51.980;5.918;2023-03-05T13:26:36;9.60;63.90
43520;DHT22;46848;51.980;5.918;2023-03-05T13:29:19;9.60;63.60
43520;DHT22;46848;51.980;5.918;2023-03-05T13:31:51;9.60;63.50
43520;DHT22;46848;51.980;5.918;2023-03-05T13:37:16;9.60;63.50
43520;DHT22;46848;51.980;5.918;2023-03-05T13:44:56;9.50;62.30
43520;DHT22;46848;51.980;5.918;2023-03-05T13:47:24;9.40;62.40
43520;DHT22;46848;51.980;5.918;2023-03-05T13:50:06;9.40;62.20
43520;DHT22;46848;51.980;5.918;2023-03-05T13:52:35;9.50;62.90
43520;DHT22;46848;51.980;5.918;2023-03-05T13:55:02;9.40;62.20
43520;DHT22;46848;51.980;5.918;2023-03-05T14:02:52;9.50;62.00
43520;DHT22;46848;51.980;5.918;2023-03-05T14:05:18;9.60;61.80
43520;DHT22;46848;51.980;5.918;2023-03-05T14:07:47;9.60;61.80
43520;DHT22;46848;51.980;5.918;2023-03-05T14:12:54;9.60;61.30
43520;DHT22;46848;51.980;5.918;2023-03-05T14:17:49;9.60;61.10
43520;DHT22;46848;51.980;5.918;2023-03-05T14:20:22;9.60;61.10
43520;DHT22;46848;51.980;5.918;2023-03-05T14:22:57;9.60;60.90
43520;DHT22;46848;51.980;5.918;2023-03-05T14:25:37;9.60;60.60
43520;DHT22;46848;51.980;5.918;2023-03-05T14:28:06;9.60;61.40
43520;DHT22;46848;51.980;5.918;2023-03-05T14:30:45;9.60;60.60
43520;DHT22;46848;51.980;5.918;2023-03-05T14:33:11;9.60;60.40
43520;DHT22;46848;51.980;5.918;2023-03-05T14:35:37;9.70;60.50
43520;DHT22;46848;51.980;5.918;2023-03-05T14:38:04;9.70;60.30
43520;DHT22;46848;51.980;5.918;2023-03-05T14:40:34;9.70;60.20
43520;DHT22;46848;51.980;5.918;2023-03-05T14:43:04;9.80;60.10
43520;DHT22;46848;51.980;5.918;2023-03-05T14:45:36;9.80;60.00
43520;DHT22;46848;51.980;5.918;2023-03-05T14:48:05;9.80;59.80
43520;DHT22;46848;51.980;5.918;2023-03-05T14:50:40;9.80;59.30
43520;DHT22;46848;51.980;5.918;2023-03-05T14:53:11;9.80;59.50
43520;DHT22;46848;51.980;5.918;2023-03-05T14:55:39;9.80;59.70
43520;DHT22;46848;51.980;5.918;2023-03-05T14:58:14;9.80;59.50
43520;DHT22;46848;51.980;5.918;2023-03-05T15:00:41;9.90;59.50
43520;DHT22;46848;51.980;5.918;2023-03-05T15:03:11;9.90;59.60
43520;DHT22;46848;51.980;5.918;2023-03-05T15:05:38;9.90;59.70
43520;DHT22;46848;51.980;5.918;2023-03-05T15:08:04;9.90;59.50
43520;DHT22;46848;51.980;5.918;2023-03-05T15:10:30;10.00;59.40
43520;DHT22;46848;51.980;5.918;2023-03-05T15:12:55;9.90;59.00
43520;DHT22;46848;51.980;5.918;2023-03-05T15:15:21;10.00;59.10
43520;DHT22;46848;51.980;5.918;2023-03-05T15:17:51;10.00;58.90
43520;DHT22;46848;51.980;5.918;2023-03-05T15:20:26;10.00;58.80
43520;DHT22;46848;51.980;5.918;2023-03-05T15:22:54;9.90;58.60
43520;DHT22;46848;51.980;5.918;2023-03-05T15:25:21;9.90;58.50
43520;DHT22;46848;51.980;5.918;2023-03-05T15:27:47;9.90;58.50
43520;DHT22;46848;51.980;5.918;2023-03-05T15:30:27;9.90;58.60
43520;DHT22;46848;51.980;5.918;2023-03-05T15:32:55;9.90;58.60
43520;DHT22;46848;51.980;5.918;2023-03-05T15:35:21;9.80;58.80
43520;DHT22;46848;51.980;5.918;2023-03-05T15:37:47;9.90;59.30
43520;DHT22;46848;51.980;5.918;2023-03-05T15:40:13;9.90;58.80
43520;DHT22;46848;51.980;5.918;2023-03-05T15:42:39;9.80;58.50
43520;DHT22;46848;51.980;5.918;2023-03-05T15:45:06;9.80;58.80
43520;DHT22;46848;51.980;5.918;2023-03-05T15:47:31;9.80;58.80
43520;DHT22;46848;51.980;5.918;2023-03-05T15:49:58;9.80;58.80
43520;DHT22;46848;51.980;5.918;2023-03-05T15:52:24;9.80;58.60
43520;DHT22;46848;51.980;5.918;2023-03-05T15:54:50;9.80;58.80
43520;DHT22;46848;51.980;5.918;2023-03-05T15:57:18;9.80;58.90
43520;DHT22;46848;51.980;5.918;2023-03-05T15:59:46;9.80;59.00
43520;DHT22;46848;51.980;5.918;2023-03-05T16:02:11;9.70;58.90
43520;DHT22;46848;51.980;5.918;2023-03-05T16:04:37;9.70;58.70
43520;DHT22;46848;51.980;5.918;2023-03-05T16:07:03;9.70;58.90
43520;DHT22;46848;51.980;5.918;2023-03-05T16:09:34;9.60;59.00
43520;DHT22;46848;51.980;5.918;2023-03-05T16:12:02;9.70;59.00
43520;DHT22;46848;51.980;5.918;2023-03-05T16:14:28;9.60;59.00
43520;DHT22;46848;51.980;5.918;2023-03-05T16:16:55;9.60;59.30
43520;DHT22;46848;51.980;5.918;2023-03-05T16:19:23;9.50;59.40
43520;DHT22;46848;51.980;5.918;2023-03-05T16:21:49;9.50;59.60
43520;DHT22;46848;51.980;5.918;2023-03-05T16:24:15;9.50;59.80
43520;DHT22;46848;51.980;5.918;2023-03-05T16:26:41;9.40;60.00
43520;DHT22;46848;51.980;5.918;2023-03-05T16:29:07;9.40;60.20
43520;DHT22;46848;51.980;5.918;2023-03-05T16:31:34;9.40;60.40
43520;DHT22;46848;51.980;5.918;2023-03-05T16:34:01;9.40;60.60
43520;DHT22;46848;51.980;5.918;2023-03-05T16:36:30;9.40;60.80
43520;DHT22;46848;51.980;5.918;2023-03-05T16:38:59;9.30;60.90
43520;DHT22;46848;51.980;5.918;2023-03-05T16:41:26;9.30;61.10
43520;DHT22;46848;51.980;5.918;2023-03-05T16:43:53;9.30;61.30
43520;DHT22;46848;51.980;5.918;2023-03-05T16:46:22;9.30;61.50
43520;DHT22;46848;51.980;5.918;2023-03-05T16:48:49;9.20;61.50
43520;DHT22;46848;51.980;5.918;2023-03-05T16:51:15;9.20;61.70
43520;DHT22;46848;51.980;5.918;2023-03-05T16:53:41;9.20;61.90
43520;DHT22;46848;51.980;5.918;2023-03-05T16:56:08;9.10;62.10
43520;DHT22;46848;51.980;5.918;2023-03-05T16:58:35;9.10;62.30
43520;DHT22;46848;51.980;5.918;2023-03-05T17:01:02;9.10;62.50
43520;DHT22;46848;51.980;5.918;2023-03-05T17:03:28;9.00;62.80
43520;DHT22;46848;51.980;5.918;2023-03-05T17:05:55;8.90;63.10
43520;DHT22;46848;51.980;5.918;2023-03-05T17:08:20;8.90;63.50
43520;DHT22;46848;51.980;5.918;2023-03-05T17:10:46;8.90;63.80
43520;DHT22;46848;51.980;5.918;2023-03-05T17:13:12;8.80;64.00
43520;DHT22;46848;51.980;5.918;2023-03-05T17:15:37;8.80;64.40
43520;DHT22;46848;51.980;5.918;2023-03-05T17:18:03;8.70;64.70
43520;DHT22;46848;51.980;5.918;2023-03-05T17:20:30;8.70;65.00
43520;DHT22;46848;51.980;5.918;2023-03-05T17:22:55;8.70;65.20
43520;DHT22;46848;51.980;5.918;2023-03-05T17:25:21;8.60;65.30
43520;DHT22;46848;51.980;5.918;2023-03-05T17:27:47;8.70;65.50
43520;DHT22;46848;51.980;5.918;2023-03-05T17:30:13;8.60;65.60
43520;DHT22;46848;51.980;5.918;2023-03-05T17:32:39;8.60;65.70